• Join FlightAware (Why Join?)
  • Login
  • US Flag 
11:12PM EDT


 

Airport Tracker/Info


-or-


 

Live Flight TrackerFlight Track Log ✈ SWA3206 ✈ 04-Jul-2013 ✈ KPHX - KMCI

Flight Track Log - Related Links

Times and Time Zones

All times are in EDT time to prevent confusion due to time zone crossing. See the SWA3206 flight status page for this flight to view local times or setup timezone preferences in your user account.

Time Position Orientation Groundspeed Altitude Reporting Facility
EDT Latitude Longitude Course Direction KTS MPH feet Rate Location/Type
04:03PM 33.4167 -112.0833 248° West 201 231 3,400  Level Phoenix TRACON
04:04PM 33.4000 -112.1500 253° West 226 260 6,100 2,220 Climbing Phoenix TRACON
04:05PM 33.3500 -112.1167 151° Southeast 293 337 7,900 2,280 Climbing Phoenix TRACON
04:06PM 33.3333 -112.0167 101° East 311 358 10,500 2,220 Climbing Phoenix TRACON
04:07PM 33.3431 -111.8747 85° East 356 410 13,200 2,100 Climbing Albuquerque Center
04:08PM 33.5145 -111.2364 82° East  Level FlightAware Approximate
04:08PM 33.3806 -111.7589 69° East 373 429 15,700  Level Albuquerque Center
04:09PM 33.4200 -111.6361 69° East 385 443 18,700 2,640 Climbing Albuquerque Center
04:11PM 33.4572 -111.5189 69° East 391 450 21,200 2,160 Climbing Albuquerque Center
04:12PM 33.4975 -111.3939 69° East 403 464 23,200 2,100 Climbing Albuquerque Center
04:13PM 33.5197 -111.2286 81° East 424 488 25,500 1,860 Climbing Albuquerque Center
04:14PM 33.5347 -111.0856 83° East 434 499 27,000 1,320 Climbing Albuquerque Center
04:15PM 33.5511 -110.9350 83° East 452 520 28,300 1,260 Climbing Albuquerque Center
04:16PM 33.5872 -110.7869 74° East 463 533 29,700 1,680 Climbing Albuquerque Center
04:17PM 33.6308 -110.6411 70° East 466 536 31,800 1,920 Climbing Albuquerque Center
04:18PM 33.6722 -110.4986 71° East 459 528 33,700 1,740 Climbing Albuquerque Center
04:19PM 33.7119 -110.3572 71° East 451 519 35,400 1,500 Climbing Albuquerque Center
04:20PM 33.7531 -110.2197 70° East 443 510 36,800 780 Climbing Albuquerque Center
04:21PM 33.7919 -110.0831 71° East 437 503 37,000 60 Climbing Albuquerque Center
04:22PM 33.8400 -109.9167 71° East 438 504 37,000  Level Albuquerque Center
04:23PM 33.8781 -109.7850 71° East 437 503 37,000  Level Albuquerque Center
04:24PM 33.9208 -109.6294 72° East 438 504 37,000  Level Albuquerque Center
04:25PM 33.9586 -109.4983 71° East 435 501 37,000  Level Albuquerque Center
04:27PM 34.1203 -109.2914 47° Northeast 418 481 37,000  Level Albuquerque Center
04:28PM 34.2078 -109.2086 38° Northeast 417 480 37,000  Level Albuquerque Center
04:29PM 34.3131 -109.1142 37° Northeast 421 484 37,000  Level Albuquerque Center
04:30PM 34.4033 -109.0367 35° Northeast 418 481 37,000  Level Albuquerque Center
04:31PM 34.4947 -108.9597 35° Northeast 417 480 37,000  Level Albuquerque Center
04:32PM 34.6017 -108.8694 35° Northeast 418 481 37,000  Level Albuquerque Center
04:33PM 34.6928 -108.7919 35° Northeast 418 481 37,000  Level Albuquerque Center
04:34PM 34.8022 -108.7069 33° Northeast 418 481 37,000  Level Albuquerque Center
04:35PM 34.8881 -108.6200 40° Northeast 420 483 37,000  Level Albuquerque Center
04:36PM 34.9400 -108.4944 63° Northeast 429 494 37,000  Level Albuquerque Center
04:37PM 34.9911 -108.3411 68° East 436 502 37,000  Level Albuquerque Center
04:38PM 35.0336 -108.2106 68° East 436 502 37,000  Level Albuquerque Center
04:39PM 35.0842 -108.0586 68° East 434 499 37,000  Level Albuquerque Center
04:40PM 35.1269 -107.9294 68° East 431 496 37,000  Level Albuquerque Center
04:41PM 35.1694 -107.8006 68° East 429 494 37,000  Level Albuquerque Center
04:42PM 35.2183 -107.6489 68° East 430 495 37,000  Level Albuquerque Center
04:43PM 35.2600 -107.5208 68° East 427 491 37,000  Level Albuquerque Center
04:44PM 35.3019 -107.3958 68° East 431 496 37,000  Level Albuquerque Center
04:45PM 35.3561 -107.2292 68° East 435 501 37,000  Level Albuquerque Center
04:46PM 35.3661 -107.0933 85° East 448 516 37,000  Level Albuquerque Center
04:47PM 35.3589 -106.9200 93° East 454 522 37,000  Level Albuquerque Center
04:48PM 35.3539 -106.7753 92° East 448 516 37,000  Level Albuquerque Center
04:49PM 35.3481 -106.6033 92° East 452 520 37,000  Level Albuquerque Center
04:50PM 35.3417 -106.4575 93° East 451 519 37,000  Level Albuquerque Center
04:51PM 35.3342 -106.3067 93° East 444 511 37,000  Level Albuquerque Center
04:52PM 35.3250 -106.1583 94° East 441 507 37,000  Level Albuquerque Center
04:53PM 35.3189 -106.0061 93° East 443 510 37,000  Level Albuquerque Center
04:54PM 35.3164 -105.8556 91° East 441 507 37,000  Level Albuquerque Center
04:55PM 35.3103 -105.7006 93° East 448 516 37,000  Level Albuquerque Center
04:56PM 35.2989 -105.5469 95° East 450 518 37,000  Level Albuquerque Center
04:57PM 35.3092 -105.3756 86° East 434 499 37,000  Level Albuquerque Center
04:59PM 35.3558 -105.2453 66° East 415 478 37,000  Level Albuquerque Center
05:00PM 35.4017 -105.1169 66° East 408 470 37,000  Level Albuquerque Center
05:01PM 35.4506 -104.9847 66° East 417 480 37,000  Level Albuquerque Center
05:02PM 35.5100 -104.8642 59° Northeast 409 471 37,000  Level Albuquerque Center
05:03PM 35.5814 -104.7608 50° Northeast 396 456 37,000  Level Albuquerque Center
05:04PM 35.6544 -104.6558 49° Northeast 396 456 37,000  Level Albuquerque Center
05:05PM 35.7264 -104.5522 49° Northeast 394 453 37,000  Level Albuquerque Center
05:06PM 35.7975 -104.4464 50° Northeast 395 455 37,000  Level Albuquerque Center
05:07PM 35.8714 -104.3408 49° Northeast 398 458 37,000  Level Albuquerque Center
05:08PM 35.9447 -104.2372 49° Northeast 397 457 37,000  Level Albuquerque Center
05:09PM 36.0167 -104.1356 49° Northeast 392 451 37,000  Level Albuquerque Center
05:10PM 36.0761 -104.0178 58° Northeast 402 463 37,000  Level Albuquerque Center
05:11PM 36.1183 -103.8858 68° East 407 468 37,000  Level Albuquerque Center
05:12PM 36.1628 -103.7553 67° East 408 470 37,000  Level Albuquerque Center
05:13PM 36.2050 -103.6219 69° East 410 472 37,000  Level Albuquerque Center
05:14PM 36.2478 -103.4864 69° East 415 478 37,000  Level Albuquerque Center
05:15PM 36.2903 -103.3517 69° East 416 479 37,000  Level Albuquerque Center
05:16PM 36.3331 -103.2131 69° East 422 486 37,000  Level Albuquerque Center
05:17PM 36.3756 -103.0753 69° East 424 488 37,000  Level Albuquerque Center
05:18PM 36.4183 -102.9392 69° East 419 482 37,000  Level Albuquerque Center
05:19PM 36.4603 -102.8031 69° East 424 488 37,000  Level Albuquerque Center
05:20PM 36.5019 -102.6686 69° East 420 483 37,000  Level Albuquerque Center
05:21PM 36.5519 -102.5067 69° East 419 482 37,000  Level Albuquerque Center
05:22PM 36.5933 -102.3706 69° East 421 484 37,000  Level Albuquerque Center
05:23PM 36.6342 -102.2339 70° East 420 483 37,000  Level Albuquerque Center
05:24PM 36.6736 -102.1031 69° East 420 483 37,000  Level Albuquerque Center
05:25PM 36.7203 -101.9533 69° East 418 481 37,000  Level Albuquerque Center
05:26PM 36.7586 -101.8222 70° East 419 482 37,000  Level Albuquerque Center
05:27PM 36.7972 -101.6928 70° East 418 481 37,000  Level Albuquerque Center
05:28PM 36.8292 -101.5831 70° East 419 482 37,000  Level Kansas City Center
05:29PM 36.8681 -101.4539 69° East 419 482 37,000  Level Kansas City Center
05:30PM 36.9114 -101.3033 70° East 415 478 37,000  Level Kansas City Center
05:31PM 36.9494 -101.1753 70° East 413 475 37,000  Level Kansas City Center
05:32PM 36.9869 -101.0486 70° East 410 472 37,000  Level Kansas City Center
05:33PM 37.0303 -100.9008 70° East 408 470 37,000  Level Kansas City Center
05:34PM 37.0661 -100.7744 70° East 406 467 37,000  Level Kansas City Center
05:35PM 37.1089 -100.6272 70° East 405 466 37,000  Level Kansas City Center
05:36PM 37.1450 -100.5014 70° East 403 464 37,000  Level Kansas City Center
05:37PM 37.1867 -100.3547 70° East 402 463 37,000  Level Kansas City Center
05:38PM 37.2225 -100.2286 70° East 402 463 37,000  Level Kansas City Center
05:39PM 37.2578 -100.1025 71° East 403 464 37,000  Level Kansas City Center
05:40PM 37.3003 -99.9550 70° East 404 465 37,000  Level Kansas City Center
05:41PM 37.3342 -99.8286 71° East 403 464 37,000  Level Kansas City Center
05:42PM 37.3753 -99.6811 71° East 402 463 37,000  Level Kansas City Center
05:43PM 37.4106 -99.5539 71° East 403 464 37,000  Level Kansas City Center
05:44PM 37.4500 -99.4133 70° East 405 466 37,000  Level Kansas City Center
05:45PM 37.4869 -99.2800 71° East 406 467 37,000  Level Kansas City Center
05:46PM 37.5228 -99.1464 71° East 404 465 37,000  Level Kansas City Center
05:47PM 37.5633 -99.0156 69° East 403 464 37,000  Level Kansas City Center
05:48PM 37.6125 -98.8922 63° Northeast 396 456 37,000  Level Kansas City Center
05:49PM 37.6569 -98.7656 66° East 396 456 37,000  Level Kansas City Center
05:50PM 37.7019 -98.6394 66° East 395 455 37,000  Level Kansas City Center
05:51PM 37.7472 -98.5144 65° Northeast 392 451 37,000  Level Kansas City Center
05:52PM 37.7942 -98.3900 64° Northeast 394 453 37,000  Level Kansas City Center
05:53PM 37.8383 -98.2661 66° East 387 445 37,000  Level Kansas City Center
05:54PM 37.8881 -98.1247 66° East 388 447 37,000  Level Kansas City Center
05:55PM 37.9328 -98.0050 65° Northeast 381 438 37,000  Level Kansas City Center
05:56PM 37.9781 -97.8811 65° Northeast 381 438 37,000  Level Kansas City Center
05:57PM 38.0256 -97.7339 68° East 399 459 37,000  Level Kansas City Center
05:58PM 38.0703 -97.6067 66° East 396 456 37,000  Level Kansas City Center
05:59PM 38.1172 -97.4714 66° East 396 456 37,000  Level Kansas City Center
06:00PM 38.1631 -97.3417 66° East 401 461 37,000  Level Kansas City Center
06:01PM 38.2081 -97.2114 66° East 402 463 37,000  Level Kansas City Center
06:02PM 38.2528 -97.0803 66° East 404 465 37,000  Level Kansas City Center
06:03PM 38.2983 -96.9478 66° East 408 470 37,000  Level Kansas City Center
06:05PM 38.3439 -96.8153 66° East 410 472 37,000 -180 Level Kansas City Center
06:06PM 38.3892 -96.6808 67° East 412 474 36,700 -1,320 Descending Kansas City Center
06:07PM 38.4328 -96.5492 67° East 406 467 34,400 -2,040 Descending Kansas City Center
06:08PM 38.4756 -96.4258 66° East 388 447 32,600 -1,860 Descending Kansas City Center
06:09PM 38.5197 -96.2897 67° East 373 429 30,700 -1,860 Descending Kansas City Center
06:10PM 38.5592 -96.1719 67° East 377 434 28,900 -1,860 Descending Kansas City Center
06:11PM 38.6047 -96.0361 67° East 374 430 26,900 -1,860 Descending Kansas City Center
06:12PM 38.6414 -95.9225 68° East 365 420 25,100 -1,680 Descending Kansas City Center
06:13PM 38.6772 -95.8133 67° East 355 409 23,500 -1,800 Descending Kansas City Center
06:14PM 38.7194 -95.6850 67° East 352 405 21,500 -1,800 Descending Kansas City Center
06:15PM 38.7564 -95.5753 67° East 351 404 19,900 -1,740 Descending Kansas City Center
06:16PM 38.7964 -95.4497 68° East 342 394 18,000 -1,800 Descending Kansas City Center
06:17PM 38.8486 -95.3600 53° Northeast 332 382 16,300 -1,680 Descending Kansas City Center
06:18PM 38.9064 -95.2786 48° Northeast 323 372 14,700 -1,680 Descending Kansas City Center
06:19PM 38.9711 -95.1881 47° Northeast 311 358 13,000 -1,680 Descending Kansas City Center
06:20PM 39.0339 -95.1236 39° Northeast 306 352 11,300 -1,620 Descending Kansas City Center
06:21PM 39.1064 -95.0586 35° Northeast 288 331 9,700 -1,620 Descending Kansas City Center
06:22PM 39.1678 -95.0031 35° Northeast 284 327 8,000 -1,320 Descending Kansas City Center
06:23PM 39.2289 -94.9500 34° Northeast 279 321 7,100 -900 Descending Kansas City Center
06:24PM 39.2953 -94.8956 32° Northeast 258 297 6,200 -1,020 Descending Kansas City Center
06:25PM 39.3492 -94.8497 33° Northeast 243 280 5,100 -1,020 Descending Kansas City Center
06:26PM 39.4131 -94.8131 24° Northeast 223 257 4,200 -900 Descending Kansas City Center
06:27PM 39.4333 -94.7683 60° Northeast 164 189 3,300 -840 Descending Kansas City Center
06:28PM 39.4158 -94.7236 117° Southeast 143 165 2,600 -600 Descending Kansas City Center
06:29PM 39.3761 -94.7058 161° South 136 157 2,100 -600 Descending Kansas City Center
06:30PM 39.3400 -94.7158 192° South 137 158 1,400 -600 Descending Kansas City Center
06:31PM 39.3053 -94.7261 193° South 137 158 1,000 -420 Descending Kansas City Center